sensor_id;sensor_type;location;lat;lon;timestamp;P1;durP1;ratioP1;P2;durP2;ratioP2
37855;SDS011;23694;43.274;26.924;2023-04-03T00:00:16;5.87;;;4.70;;
37855;SDS011;23694;43.274;26.924;2023-04-03T00:02:42;5.93;;;3.70;;
37855;SDS011;23694;43.274;26.924;2023-04-03T00:05:08;3.73;;;3.30;;
37855;SDS011;23694;43.274;26.924;2023-04-03T00:07:35;4.07;;;3.20;;
37855;SDS011;23694;43.274;26.924;2023-04-03T00:10:01;3.97;;;3.10;;
37855;SDS011;23694;43.274;26.924;2023-04-03T00:12:27;2.97;;;2.47;;
37855;SDS011;23694;43.274;26.924;2023-04-03T00:14:53;4.23;;;2.43;;
37855;SDS011;23694;43.274;26.924;2023-04-03T00:17:19;2.80;;;1.90;;
37855;SDS011;23694;43.274;26.924;2023-04-03T00:19:45;4.60;;;2.30;;
37855;SDS011;23694;43.274;26.924;2023-04-03T00:22:11;2.40;;;1.50;;
37855;SDS011;23694;43.274;26.924;2023-04-03T00:24:37;2.40;;;1.67;;
37855;SDS011;23694;43.274;26.924;2023-04-03T00:27:03;3.77;;;1.80;;
37855;SDS011;23694;43.274;26.924;2023-04-03T00:29:29;3.60;;;1.60;;
37855;SDS011;23694;43.274;26.924;2023-04-03T00:31:55;1.90;;;1.40;;
37855;SDS011;23694;43.274;26.924;2023-04-03T00:34:21;2.43;;;1.57;;
37855;SDS011;23694;43.274;26.924;2023-04-03T00:36:47;3.03;;;1.63;;
37855;SDS011;23694;43.274;26.924;2023-04-03T00:39:13;1.80;;;1.30;;
37855;SDS011;23694;43.274;26.924;2023-04-03T00:41:40;2.07;;;1.60;;
37855;SDS011;23694;43.274;26.924;2023-04-03T00:44:19;3.00;;;1.40;;
37855;SDS011;23694;43.274;26.924;2023-04-03T00:46:46;1.80;;;1.40;;
37855;SDS011;23694;43.274;26.924;2023-04-03T00:49:12;3.47;;;1.50;;
37855;SDS011;23694;43.274;26.924;2023-04-03T00:51:38;2.60;;;1.33;;
37855;SDS011;23694;43.274;26.924;2023-04-03T00:54:05;3.70;;;1.70;;
37855;SDS011;23694;43.274;26.924;2023-04-03T00:56:33;2.67;;;1.53;;
37855;SDS011;23694;43.274;26.924;2023-04-03T01:01:31;1.73;;;1.57;;
37855;SDS011;23694;43.274;26.924;2023-04-03T01:04:00;2.20;;;1.60;;
37855;SDS011;23694;43.274;26.924;2023-04-03T01:06:29;3.30;;;1.33;;
37855;SDS011;23694;43.274;26.924;2023-04-03T01:08:58;4.20;;;1.53;;
37855;SDS011;23694;43.274;26.924;2023-04-03T01:11:25;2.37;;;1.53;;
37855;SDS011;23694;43.274;26.924;2023-04-03T01:13:52;3.50;;;1.70;;
37855;SDS011;23694;43.274;26.924;2023-04-03T01:16:19;3.83;;;1.63;;
37855;SDS011;23694;43.274;26.924;2023-04-03T01:18:45;3.50;;;1.50;;
37855;SDS011;23694;43.274;26.924;2023-04-03T01:26:47;3.33;;;1.90;;
37855;SDS011;23694;43.274;26.924;2023-04-03T01:29:14;2.47;;;1.80;;
37855;SDS011;23694;43.274;26.924;2023-04-03T01:31:51;2.20;;;1.73;;
37855;SDS011;23694;43.274;26.924;2023-04-03T01:34:22;3.23;;;1.77;;
37855;SDS011;23694;43.274;26.924;2023-04-03T01:36:48;2.60;;;2.10;;
37855;SDS011;23694;43.274;26.924;2023-04-03T01:39:16;3.40;;;2.23;;
37855;SDS011;23694;43.274;26.924;2023-04-03T01:41:42;2.63;;;1.83;;
37855;SDS011;23694;43.274;26.924;2023-04-03T01:44:09;3.80;;;1.70;;
37855;SDS011;23694;43.274;26.924;2023-04-03T01:46:35;2.83;;;2.00;;
37855;SDS011;23694;43.274;26.924;2023-04-03T01:49:03;2.93;;;1.70;;
37855;SDS011;23694;43.274;26.924;2023-04-03T01:51:30;2.00;;;1.80;;
37855;SDS011;23694;43.274;26.924;2023-04-03T01:53:56;3.40;;;1.50;;
37855;SDS011;23694;43.274;26.924;2023-04-03T01:56:22;2.40;;;1.80;;
37855;SDS011;23694;43.274;26.924;2023-04-03T01:58:48;3.33;;;1.70;;
37855;SDS011;23694;43.274;26.924;2023-04-03T02:01:15;2.80;;;1.73;;
37855;SDS011;23694;43.274;26.924;2023-04-03T02:03:41;2.27;;;1.47;;
37855;SDS011;23694;43.274;26.924;2023-04-03T02:06:07;2.90;;;1.63;;
37855;SDS011;23694;43.274;26.924;2023-04-03T02:08:33;2.10;;;1.60;;
37855;SDS011;23694;43.274;26.924;2023-04-03T02:10:59;2.87;;;1.60;;
37855;SDS011;23694;43.274;26.924;2023-04-03T02:13:25;3.03;;;1.60;;
37855;SDS011;23694;43.274;26.924;2023-04-03T02:15:51;2.13;;;1.90;;
37855;SDS011;23694;43.274;26.924;2023-04-03T02:18:17;2.20;;;1.70;;
37855;SDS011;23694;43.274;26.924;2023-04-03T02:20:43;2.30;;;1.57;;
37855;SDS011;23694;43.274;26.924;2023-04-03T02:23:10;1.70;;;1.50;;
37855;SDS011;23694;43.274;26.924;2023-04-03T02:25:36;2.50;;;1.60;;
37855;SDS011;23694;43.274;26.924;2023-04-03T02:28:02;2.53;;;1.60;;
37855;SDS011;23694;43.274;26.924;2023-04-03T02:30:28;2.17;;;1.57;;
37855;SDS011;23694;43.274;26.924;2023-04-03T02:32:54;2.80;;;1.57;;
37855;SDS011;23694;43.274;26.924;2023-04-03T02:35:21;2.87;;;1.50;;
37855;SDS011;23694;43.274;26.924;2023-04-03T02:37:47;1.80;;;1.60;;
37855;SDS011;23694;43.274;26.924;2023-04-03T02:40:13;2.87;;;1.70;;
37855;SDS011;23694;43.274;26.924;2023-04-03T02:42:39;1.93;;;1.60;;
37855;SDS011;23694;43.274;26.924;2023-04-03T02:45:05;2.10;;;1.43;;
37855;SDS011;23694;43.274;26.924;2023-04-03T02:47:32;2.90;;;1.70;;
37855;SDS011;23694;43.274;26.924;2023-04-03T02:49:58;3.40;;;1.73;;
37855;SDS011;23694;43.274;26.924;2023-04-03T02:52:24;4.20;;;2.00;;
37855;SDS011;23694;43.274;26.924;2023-04-03T02:54:50;2.70;;;1.90;;
37855;SDS011;23694;43.274;26.924;2023-04-03T02:57:16;4.13;;;2.43;;
37855;SDS011;23694;43.274;26.924;2023-04-03T02:59:42;3.27;;;2.50;;
37855;SDS011;23694;43.274;26.924;2023-04-03T03:02:09;7.27;;;3.17;;
37855;SDS011;23694;43.274;26.924;2023-04-03T03:04:36;9.40;;;3.30;;
37855;SDS011;23694;43.274;26.924;2023-04-03T03:07:02;5.60;;;3.27;;
37855;SDS011;23694;43.274;26.924;2023-04-03T03:09:28;4.50;;;3.20;;
37855;SDS011;23694;43.274;26.924;2023-04-03T03:11:55;8.73;;;3.10;;
37855;SDS011;23694;43.274;26.924;2023-04-03T03:14:22;3.73;;;2.97;;
37855;SDS011;23694;43.274;26.924;2023-04-03T03:16:48;5.63;;;3.17;;
37855;SDS011;23694;43.274;26.924;2023-04-03T03:19:15;3.40;;;2.60;;
37855;SDS011;23694;43.274;26.924;2023-04-03T03:21:41;8.07;;;2.67;;
37855;SDS011;23694;43.274;26.924;2023-04-03T03:24:07;4.57;;;3.10;;
37855;SDS011;23694;43.274;26.924;2023-04-03T03:26:33;5.47;;;3.07;;
37855;SDS011;23694;43.274;26.924;2023-04-03T03:28:59;6.27;;;3.57;;
37855;SDS011;23694;43.274;26.924;2023-04-03T03:31:25;5.37;;;3.40;;
37855;SDS011;23694;43.274;26.924;2023-04-03T03:33:52;6.30;;;3.80;;
37855;SDS011;23694;43.274;26.924;2023-04-03T03:36:18;7.93;;;3.70;;
37855;SDS011;23694;43.274;26.924;2023-04-03T03:38:44;5.33;;;3.57;;
37855;SDS011;23694;43.274;26.924;2023-04-03T03:41:10;6.57;;;4.20;;
37855;SDS011;23694;43.274;26.924;2023-04-03T03:43:36;6.13;;;4.37;;
37855;SDS011;23694;43.274;26.924;2023-04-03T03:46:02;6.80;;;4.20;;
37855;SDS011;23694;43.274;26.924;2023-04-03T03:48:28;8.97;;;4.90;;
37855;SDS011;23694;43.274;26.924;2023-04-03T03:50:54;6.70;;;4.50;;
37855;SDS011;23694;43.274;26.924;2023-04-03T03:53:20;7.27;;;5.10;;
37855;SDS011;23694;43.274;26.924;2023-04-03T03:55:46;9.57;;;4.80;;
37855;SDS011;23694;43.274;26.924;2023-04-03T03:58:12;6.53;;;3.70;;
37855;SDS011;23694;43.274;26.924;2023-04-03T04:00:38;10.83;;;4.17;;
37855;SDS011;23694;43.274;26.924;2023-04-03T04:03:04;6.57;;;3.67;;
37855;SDS011;23694;43.274;26.924;2023-04-03T04:05:31;9.73;;;3.67;;
37855;SDS011;23694;43.274;26.924;2023-04-03T04:07:57;6.20;;;3.97;;
37855;SDS011;23694;43.274;26.924;2023-04-03T04:10:23;8.20;;;4.23;;
37855;SDS011;23694;43.274;26.924;2023-04-03T04:12:49;7.33;;;4.23;;
37855;SDS011;23694;43.274;26.924;2023-04-03T04:15:16;7.27;;;3.90;;
37855;SDS011;23694;43.274;26.924;2023-04-03T04:17:43;4.33;;;3.47;;
37855;SDS011;23694;43.274;26.924;2023-04-03T04:20:09;6.70;;;4.00;;
37855;SDS011;23694;43.274;26.924;2023-04-03T04:22:35;8.90;;;4.37;;
37855;SDS011;23694;43.274;26.924;2023-04-03T04:25:02;8.43;;;4.53;;
37855;SDS011;23694;43.274;26.924;2023-04-03T04:27:28;16.27;;;4.97;;
37855;SDS011;23694;43.274;26.924;2023-04-03T04:29:54;11.53;;;4.53;;
37855;SDS011;23694;43.274;26.924;2023-04-03T04:32:20;7.67;;;4.63;;
37855;SDS011;23694;43.274;26.924;2023-04-03T04:34:46;11.30;;;4.10;;
37855;SDS011;23694;43.274;26.924;2023-04-03T04:37:12;7.23;;;3.67;;
37855;SDS011;23694;43.274;26.924;2023-04-03T04:39:38;8.57;;;4.33;;
37855;SDS011;23694;43.274;26.924;2023-04-03T04:42:04;8.83;;;4.60;;
37855;SDS011;23694;43.274;26.924;2023-04-03T04:44:30;11.57;;;5.93;;
37855;SDS011;23694;43.274;26.924;2023-04-03T04:46:56;34.83;;;22.63;;
37855;SDS011;23694;43.274;26.924;2023-04-03T04:49:22;14.53;;;8.70;;
37855;SDS011;23694;43.274;26.924;2023-04-03T04:51:48;8.93;;;4.30;;
37855;SDS011;23694;43.274;26.924;2023-04-03T04:54:14;16.67;;;6.40;;
37855;SDS011;23694;43.274;26.924;2023-04-03T04:56:40;13.07;;;6.90;;
37855;SDS011;23694;43.274;26.924;2023-04-03T04:59:06;37.70;;;24.53;;
37855;SDS011;23694;43.274;26.924;2023-04-03T05:01:32;17.70;;;7.77;;
37855;SDS011;23694;43.274;26.924;2023-04-03T05:03:58;10.03;;;5.50;;
37855;SDS011;23694;43.274;26.924;2023-04-03T05:06:24;13.37;;;4.80;;
37855;SDS011;23694;43.274;26.924;2023-04-03T05:08:50;27.80;;;16.63;;
37855;SDS011;23694;43.274;26.924;2023-04-03T05:11:16;8.87;;;4.30;;
37855;SDS011;23694;43.274;26.924;2023-04-03T05:13:43;9.40;;;4.50;;
37855;SDS011;23694;43.274;26.924;2023-04-03T05:16:09;9.10;;;4.13;;
37855;SDS011;23694;43.274;26.924;2023-04-03T05:18:35;11.43;;;4.50;;
37855;SDS011;23694;43.274;26.924;2023-04-03T05:21:01;18.97;;;4.43;;
37855;SDS011;23694;43.274;26.924;2023-04-03T05:23:27;11.07;;;4.80;;
37855;SDS011;23694;43.274;26.924;2023-04-03T05:25:53;6.47;;;4.40;;
37855;SDS011;23694;43.274;26.924;2023-04-03T05:28:19;11.87;;;4.47;;
37855;SDS011;23694;43.274;26.924;2023-04-03T05:30:45;17.30;;;4.83;;
37855;SDS011;23694;43.274;26.924;2023-04-03T05:33:19;11.37;;;4.80;;
37855;SDS011;23694;43.274;26.924;2023-04-03T05:35:45;10.67;;;4.47;;
37855;SDS011;23694;43.274;26.924;2023-04-03T05:38:12;10.60;;;3.90;;
37855;SDS011;23694;43.274;26.924;2023-04-03T05:40:38;7.63;;;2.90;;
37855;SDS011;23694;43.274;26.924;2023-04-03T05:43:04;10.80;;;3.70;;
37855;SDS011;23694;43.274;26.924;2023-04-03T05:45:30;9.10;;;3.10;;
37855;SDS011;23694;43.274;26.924;2023-04-03T05:47:56;21.27;;;5.97;;
37855;SDS011;23694;43.274;26.924;2023-04-03T05:50:22;12.03;;;5.83;;
37855;SDS011;23694;43.274;26.924;2023-04-03T05:52:49;19.90;;;9.30;;
37855;SDS011;23694;43.274;26.924;2023-04-03T05:55:16;15.90;;;6.90;;
37855;SDS011;23694;43.274;26.924;2023-04-03T05:57:43;11.33;;;4.77;;
37855;SDS011;23694;43.274;26.924;2023-04-03T06:00:11;9.40;;;5.50;;
37855;SDS011;23694;43.274;26.924;2023-04-03T06:02:40;5.23;;;3.23;;
37855;SDS011;23694;43.274;26.924;2023-04-03T06:05:07;5.97;;;3.20;;
37855;SDS011;23694;43.274;26.924;2023-04-03T06:07:34;5.63;;;3.07;;
37855;SDS011;23694;43.274;26.924;2023-04-03T06:10:01;7.67;;;3.40;;
37855;SDS011;23694;43.274;26.924;2023-04-03T06:12:28;6.13;;;2.90;;
37855;SDS011;23694;43.274;26.924;2023-04-03T06:14:55;3.20;;;1.80;;
37855;SDS011;23694;43.274;26.924;2023-04-03T06:17:21;1.90;;;1.70;;
37855;SDS011;23694;43.274;26.924;2023-04-03T06:19:47;2.67;;;1.93;;
37855;SDS011;23694;43.274;26.924;2023-04-03T06:22:14;3.73;;;2.80;;
37855;SDS011;23694;43.274;26.924;2023-04-03T06:24:40;11.83;;;5.50;;
37855;SDS011;23694;43.274;26.924;2023-04-03T06:27:07;13.07;;;7.70;;
37855;SDS011;23694;43.274;26.924;2023-04-03T06:29:33;12.43;;;4.60;;
37855;SDS011;23694;43.274;26.924;2023-04-03T06:31:59;4.67;;;2.77;;
37855;SDS011;23694;43.274;26.924;2023-04-03T06:34:25;3.47;;;2.40;;
37855;SDS011;23694;43.274;26.924;2023-04-03T06:36:51;2.73;;;1.87;;
37855;SDS011;23694;43.274;26.924;2023-04-03T06:39:19;3.30;;;1.80;;
37855;SDS011;23694;43.274;26.924;2023-04-03T06:41:48;1.37;;;1.10;;
37855;SDS011;23694;43.274;26.924;2023-04-03T06:44:15;1.60;;;1.50;;
37855;SDS011;23694;43.274;26.924;2023-04-03T06:46:42;12.03;;;3.10;;
37855;SDS011;23694;43.274;26.924;2023-04-03T06:49:10;23.53;;;4.57;;
37855;SDS011;23694;43.274;26.924;2023-04-03T06:51:37;8.23;;;2.43;;
37855;SDS011;23694;43.274;26.924;2023-04-03T06:54:03;6.50;;;1.50;;
37855;SDS011;23694;43.274;26.924;2023-04-03T06:56:31;6.43;;;1.70;;
37855;SDS011;23694;43.274;26.924;2023-04-03T06:58:58;2.73;;;1.70;;
37855;SDS011;23694;43.274;26.924;2023-04-03T07:01:25;3.70;;;1.70;;
37855;SDS011;23694;43.274;26.924;2023-04-03T07:03:53;8.13;;;2.40;;
37855;SDS011;23694;43.274;26.924;2023-04-03T07:06:19;4.37;;;1.70;;
37855;SDS011;23694;43.274;26.924;2023-04-03T07:08:45;3.33;;;1.50;;
37855;SDS011;23694;43.274;26.924;2023-04-03T07:11:13;2.53;;;1.53;;
37855;SDS011;23694;43.274;26.924;2023-04-03T07:13:40;2.17;;;1.70;;
37855;SDS011;23694;43.274;26.924;2023-04-03T07:16:06;2.53;;;1.60;;
37855;SDS011;23694;43.274;26.924;2023-04-03T07:18:34;2.80;;;1.47;;
37855;SDS011;23694;43.274;26.924;2023-04-03T07:21:00;6.50;;;1.90;;
37855;SDS011;23694;43.274;26.924;2023-04-03T07:23:27;2.93;;;2.23;;
37855;SDS011;23694;43.274;26.924;2023-04-03T07:25:54;1.73;;;1.40;;
37855;SDS011;23694;43.274;26.924;2023-04-03T07:28:20;2.97;;;1.53;;
37855;SDS011;23694;43.274;26.924;2023-04-03T07:30:50;2.57;;;1.70;;
37855;SDS011;23694;43.274;26.924;2023-04-03T07:33:19;3.00;;;1.43;;
37855;SDS011;23694;43.274;26.924;2023-04-03T07:35:47;2.33;;;1.50;;
37855;SDS011;23694;43.274;26.924;2023-04-03T07:38:13;4.00;;;1.20;;
37855;SDS011;23694;43.274;26.924;2023-04-03T07:40:39;1.83;;;1.37;;
37855;SDS011;23694;43.274;26.924;2023-04-03T07:43:05;3.03;;;1.50;;
37855;SDS011;23694;43.274;26.924;2023-04-03T07:45:33;3.87;;;1.97;;
37855;SDS011;23694;43.274;26.924;2023-04-03T07:48:01;4.00;;;2.20;;
37855;SDS011;23694;43.274;26.924;2023-04-03T07:50:27;5.60;;;2.90;;
37855;SDS011;23694;43.274;26.924;2023-04-03T07:52:57;6.53;;;3.00;;
37855;SDS011;23694;43.274;26.924;2023-04-03T07:55:23;4.80;;;2.80;;
37855;SDS011;23694;43.274;26.924;2023-04-03T07:57:50;5.73;;;2.27;;
37855;SDS011;23694;43.274;26.924;2023-04-03T08:00:17;2.50;;;1.60;;
37855;SDS011;23694;43.274;26.924;2023-04-03T08:02:43;1.80;;;1.40;;
37855;SDS011;23694;43.274;26.924;2023-04-03T08:05:10;1.80;;;1.37;;
37855;SDS011;23694;43.274;26.924;2023-04-03T08:07:37;2.87;;;1.67;;
37855;SDS011;23694;43.274;26.924;2023-04-03T08:10:03;1.37;;;1.20;;
37855;SDS011;23694;43.274;26.924;2023-04-03T08:12:30;2.63;;;1.50;;
37855;SDS011;23694;43.274;26.924;2023-04-03T08:14:59;3.93;;;2.10;;
37855;SDS011;23694;43.274;26.924;2023-04-03T08:17:26;2.87;;;1.70;;
37855;SDS011;23694;43.274;26.924;2023-04-03T08:19:52;1.93;;;1.30;;
37855;SDS011;23694;43.274;26.924;2023-04-03T08:22:19;2.20;;;1.27;;
37855;SDS011;23694;43.274;26.924;2023-04-03T08:24:45;1.83;;;1.30;;
37855;SDS011;23694;43.274;26.924;2023-04-03T08:27:11;3.93;;;1.80;;
37855;SDS011;23694;43.274;26.924;2023-04-03T08:29:37;3.07;;;1.30;;
37855;SDS011;23694;43.274;26.924;2023-04-03T08:32:04;4.07;;;1.80;;
37855;SDS011;23694;43.274;26.924;2023-04-03T08:34:30;4.33;;;1.93;;
37855;SDS011;23694;43.274;26.924;2023-04-03T08:37:00;2.50;;;1.60;;
37855;SDS011;23694;43.274;26.924;2023-04-03T08:39:27;3.23;;;1.40;;
37855;SDS011;23694;43.274;26.924;2023-04-03T08:41:55;2.50;;;1.60;;
37855;SDS011;23694;43.274;26.924;2023-04-03T08:44:25;1.93;;;1.30;;
37855;SDS011;23694;43.274;26.924;2023-04-03T08:49:35;1.37;;;1.20;;
37855;SDS011;23694;43.274;26.924;2023-04-03T08:52:10;2.33;;;1.20;;
37855;SDS011;23694;43.274;26.924;2023-04-03T08:54:48;2.57;;;1.27;;
37855;SDS011;23694;43.274;26.924;2023-04-03T09:02:57;1.80;;;1.50;;
37855;SDS011;23694;43.274;26.924;2023-04-03T09:05:39;4.63;;;1.40;;
37855;SDS011;23694;43.274;26.924;2023-04-03T09:08:14;1.93;;;1.40;;
37855;SDS011;23694;43.274;26.924;2023-04-03T09:11:09;4.13;;;1.40;;
37855;SDS011;23694;43.274;26.924;2023-04-03T09:14:01;1.80;;;1.30;;
37855;SDS011;23694;43.274;26.924;2023-04-03T09:16:48;2.20;;;1.70;;
37855;SDS011;23694;43.274;26.924;2023-04-03T09:21:59;1.97;;;1.73;;
37855;SDS011;23694;43.274;26.924;2023-04-03T09:24:44;3.33;;;2.43;;
37855;SDS011;23694;43.274;26.924;2023-04-03T09:27:12;6.07;;;3.17;;
37855;SDS011;23694;43.274;26.924;2023-04-03T09:29:42;3.43;;;2.10;;
37855;SDS011;23694;43.274;26.924;2023-04-03T09:34:55;4.37;;;2.80;;
37855;SDS011;23694;43.274;26.924;2023-04-03T09:40:05;4.87;;;2.87;;
37855;SDS011;23694;43.274;26.924;2023-04-03T09:42:55;3.27;;;2.10;;
37855;SDS011;23694;43.274;26.924;2023-04-03T09:45:30;2.90;;;2.20;;
37855;SDS011;23694;43.274;26.924;2023-04-03T09:55:51;2.73;;;2.20;;
37855;SDS011;23694;43.274;26.924;2023-04-03T09:58:30;3.43;;;1.60;;
37855;SDS011;23694;43.274;26.924;2023-04-03T10:01:04;2.40;;;1.60;;
37855;SDS011;23694;43.274;26.924;2023-04-03T10:03:31;2.03;;;1.83;;
37855;SDS011;23694;43.274;26.924;2023-04-03T10:06:00;2.13;;;1.70;;
37855;SDS011;23694;43.274;26.924;2023-04-03T10:08:29;3.83;;;1.93;;
37855;SDS011;23694;43.274;26.924;2023-04-03T10:11:16;2.17;;;1.70;;
37855;SDS011;23694;43.274;26.924;2023-04-03T10:13:51;2.07;;;1.70;;
37855;SDS011;23694;43.274;26.924;2023-04-03T10:19:47;1.93;;;1.50;;
37855;SDS011;23694;43.274;26.924;2023-04-03T10:33:01;2.30;;;1.50;;
37855;SDS011;23694;43.274;26.924;2023-04-03T10:38:41;4.80;;;2.53;;
37855;SDS011;23694;43.274;26.924;2023-04-03T10:41:49;3.33;;;1.80;;
37855;SDS011;23694;43.274;26.924;2023-04-03T10:55:40;3.67;;;2.20;;
37855;SDS011;23694;43.274;26.924;2023-04-03T10:58:29;5.40;;;2.10;;
37855;SDS011;23694;43.274;26.924;2023-04-03T11:01:02;5.30;;;2.60;;
37855;SDS011;23694;43.274;26.924;2023-04-03T11:06:14;3.60;;;2.70;;
37855;SDS011;23694;43.274;26.924;2023-04-03T11:08:44;3.23;;;2.33;;
37855;SDS011;23694;43.274;26.924;2023-04-03T11:11:19;6.03;;;2.40;;
37855;SDS011;23694;43.274;26.924;2023-04-03T11:13:49;3.40;;;2.45;;
37855;SDS011;23694;43.274;26.924;2023-04-03T11:16:22;3.93;;;2.03;;
37855;SDS011;23694;43.274;26.924;2023-04-03T11:18:52;2.53;;;1.80;;
37855;SDS011;23694;43.274;26.924;2023-04-03T11:21:28;4.70;;;2.38;;
37855;SDS011;23694;43.274;26.924;2023-04-03T11:23:57;3.10;;;1.87;;
37855;SDS011;23694;43.274;26.924;2023-04-03T11:26:27;2.27;;;1.70;;
37855;SDS011;23694;43.274;26.924;2023-04-03T11:28:59;6.90;;;2.50;;
37855;SDS011;23694;43.274;26.924;2023-04-03T11:36:23;3.47;;;2.03;;
37855;SDS011;23694;43.274;26.924;2023-04-03T11:38:53;7.43;;;2.03;;
37855;SDS011;23694;43.274;26.924;2023-04-03T11:41:29;4.47;;;1.80;;
37855;SDS011;23694;43.274;26.924;2023-04-03T11:44:02;3.83;;;1.70;;
37855;SDS011;23694;43.274;26.924;2023-04-03T11:46:51;3.47;;;1.43;;
37855;SDS011;23694;43.274;26.924;2023-04-03T12:05:53;4.07;;;1.77;;
37855;SDS011;23694;43.274;26.924;2023-04-03T12:08:25;4.40;;;1.90;;
37855;SDS011;23694;43.274;26.924;2023-04-03T12:14:12;1.50;;;1.30;;
37855;SDS011;23694;43.274;26.924;2023-04-03T12:16:48;5.80;;;2.03;;
37855;SDS011;23694;43.274;26.924;2023-04-03T12:24:35;4.13;;;2.27;;
37855;SDS011;23694;43.274;26.924;2023-04-03T12:27:24;3.17;;;2.03;;
37855;SDS011;23694;43.274;26.924;2023-04-03T12:48:28;6.63;;;2.08;;
37855;SDS011;23694;43.274;26.924;2023-04-03T12:50:57;4.40;;;1.80;;
37855;SDS011;23694;43.274;26.924;2023-04-03T12:53:25;5.73;;;2.07;;
37855;SDS011;23694;43.274;26.924;2023-04-03T12:56:20;2.20;;;1.70;;
37855;SDS011;23694;43.274;26.924;2023-04-03T12:58:49;3.63;;;1.60;;
37855;SDS011;23694;43.274;26.924;2023-04-03T13:01:20;1.83;;;1.60;;
37855;SDS011;23694;43.274;26.924;2023-04-03T13:03:50;3.50;;;1.90;;
37855;SDS011;23694;43.274;26.924;2023-04-03T13:06:21;1.90;;;1.67;;
37855;SDS011;23694;43.274;26.924;2023-04-03T13:11:27;2.80;;;1.77;;
37855;SDS011;23694;43.274;26.924;2023-04-03T13:14:00;3.90;;;2.20;;
37855;SDS011;23694;43.274;26.924;2023-04-03T13:16:39;4.47;;;2.83;;
37855;SDS011;23694;43.274;26.924;2023-04-03T13:19:14;6.57;;;2.37;;
37855;SDS011;23694;43.274;26.924;2023-04-03T13:21:42;3.73;;;1.80;;
37855;SDS011;23694;43.274;26.924;2023-04-03T13:24:09;2.73;;;1.60;;
37855;SDS011;23694;43.274;26.924;2023-04-03T13:26:37;2.33;;;1.50;;
37855;SDS011;23694;43.274;26.924;2023-04-03T13:29:06;4.43;;;1.57;;
37855;SDS011;23694;43.274;26.924;2023-04-03T13:31:37;4.97;;;2.67;;
37855;SDS011;23694;43.274;26.924;2023-04-03T13:34:12;3.28;;;1.70;;
37855;SDS011;23694;43.274;26.924;2023-04-03T13:36:46;3.80;;;1.87;;
37855;SDS011;23694;43.274;26.924;2023-04-03T13:39:29;2.80;;;2.00;;
37855;SDS011;23694;43.274;26.924;2023-04-03T13:41:58;3.93;;;2.60;;
37855;SDS011;23694;43.274;26.924;2023-04-03T13:44:34;5.00;;;3.23;;
37855;SDS011;23694;43.274;26.924;2023-04-03T13:49:42;7.87;;;4.77;;
37855;SDS011;23694;43.274;26.924;2023-04-03T13:55:17;7.03;;;5.87;;
37855;SDS011;23694;43.274;26.924;2023-04-03T13:57:50;8.37;;;6.60;;
37855;SDS011;23694;43.274;26.924;2023-04-03T14:01:00;8.47;;;6.47;;
37855;SDS011;23694;43.274;26.924;2023-04-03T14:03:24;8.83;;;6.70;;
37855;SDS011;23694;43.274;26.924;2023-04-03T14:05:56;10.43;;;6.70;;
37855;SDS011;23694;43.274;26.924;2023-04-03T14:08:22;7.73;;;5.93;;
37855;SDS011;23694;43.274;26.924;2023-04-03T14:10:49;6.93;;;6.20;;
37855;SDS011;23694;43.274;26.924;2023-04-03T14:13:17;7.87;;;6.03;;
37855;SDS011;23694;43.274;26.924;2023-04-03T14:15:46;10.00;;;6.10;;
37855;SDS011;23694;43.274;26.924;2023-04-03T14:18:15;7.77;;;5.97;;
37855;SDS011;23694;43.274;26.924;2023-04-03T14:20:44;10.67;;;6.87;;
37855;SDS011;23694;43.274;26.924;2023-04-03T14:23:11;8.80;;;6.33;;
37855;SDS011;23694;43.274;26.924;2023-04-03T14:25:38;8.87;;;6.90;;
37855;SDS011;23694;43.274;26.924;2023-04-03T14:28:18;7.47;;;6.17;;
37855;SDS011;23694;43.274;26.924;2023-04-03T14:30:47;10.95;;;7.15;;
37855;SDS011;23694;43.274;26.924;2023-04-03T14:33:17;9.10;;;7.47;;
37855;SDS011;23694;43.274;26.924;2023-04-03T14:35:47;10.47;;;7.50;;
37855;SDS011;23694;43.274;26.924;2023-04-03T14:38:21;10.37;;;7.43;;
37855;SDS011;23694;43.274;26.924;2023-04-03T14:40:48;10.30;;;7.43;;
37855;SDS011;23694;43.274;26.924;2023-04-03T14:43:15;10.57;;;7.47;;
37855;SDS011;23694;43.274;26.924;2023-04-03T14:45:41;11.40;;;8.20;;
37855;SDS011;23694;43.274;26.924;2023-04-03T14:48:09;11.73;;;8.27;;
37855;SDS011;23694;43.274;26.924;2023-04-03T14:50:42;10.40;;;7.03;;
37855;SDS011;23694;43.274;26.924;2023-04-03T14:53:10;11.07;;;6.90;;
37855;SDS011;23694;43.274;26.924;2023-04-03T14:55:38;13.47;;;8.67;;
37855;SDS011;23694;43.274;26.924;2023-04-03T14:58:04;13.53;;;9.37;;
37855;SDS011;23694;43.274;26.924;2023-04-03T15:00:30;12.70;;;9.00;;
37855;SDS011;23694;43.274;26.924;2023-04-03T15:02:57;10.20;;;7.90;;
37855;SDS011;23694;43.274;26.924;2023-04-03T15:05:23;9.50;;;7.70;;
37855;SDS011;23694;43.274;26.924;2023-04-03T15:07:53;12.03;;;8.30;;
37855;SDS011;23694;43.274;26.924;2023-04-03T15:10:24;9.23;;;8.10;;
37855;SDS011;23694;43.274;26.924;2023-04-03T15:12:55;9.40;;;7.57;;
37855;SDS011;23694;43.274;26.924;2023-04-03T15:15:22;10.53;;;7.90;;
37855;SDS011;23694;43.274;26.924;2023-04-03T15:17:53;10.83;;;8.97;;
37855;SDS011;23694;43.274;26.924;2023-04-03T15:20:24;16.73;;;12.80;;
37855;SDS011;23694;43.274;26.924;2023-04-03T15:22:52;12.70;;;9.80;;
37855;SDS011;23694;43.274;26.924;2023-04-03T15:25:19;14.47;;;11.17;;
37855;SDS011;23694;43.274;26.924;2023-04-03T15:27:45;20.10;;;14.70;;
37855;SDS011;23694;43.274;26.924;2023-04-03T15:30:14;18.33;;;12.40;;
37855;SDS011;23694;43.274;26.924;2023-04-03T15:32:41;13.97;;;10.60;;
37855;SDS011;23694;43.274;26.924;2023-04-03T15:35:07;14.90;;;10.73;;
37855;SDS011;23694;43.274;26.924;2023-04-03T15:37:33;24.93;;;15.53;;
37855;SDS011;23694;43.274;26.924;2023-04-03T15:40:00;43.87;;;22.90;;
37855;SDS011;23694;43.274;26.924;2023-04-03T15:42:26;24.67;;;16.53;;
37855;SDS011;23694;43.274;26.924;2023-04-03T15:44:52;21.30;;;15.73;;
37855;SDS011;23694;43.274;26.924;2023-04-03T15:47:18;14.77;;;12.37;;
37855;SDS011;23694;43.274;26.924;2023-04-03T15:49:44;12.47;;;10.67;;
37855;SDS011;23694;43.274;26.924;2023-04-03T15:52:10;15.47;;;12.33;;
37855;SDS011;23694;43.274;26.924;2023-04-03T15:54:36;16.17;;;12.03;;
37855;SDS011;23694;43.274;26.924;2023-04-03T15:57:02;18.97;;;13.73;;
37855;SDS011;23694;43.274;26.924;2023-04-03T15:59:28;15.93;;;12.43;;
37855;SDS011;23694;43.274;26.924;2023-04-03T16:01:56;16.50;;;13.03;;
37855;SDS011;23694;43.274;26.924;2023-04-03T16:04:24;16.50;;;13.87;;
37855;SDS011;23694;43.274;26.924;2023-04-03T16:06:50;15.23;;;11.77;;
37855;SDS011;23694;43.274;26.924;2023-04-03T16:09:16;17.80;;;12.53;;
37855;SDS011;23694;43.274;26.924;2023-04-03T16:11:42;16.80;;;12.80;;
37855;SDS011;23694;43.274;26.924;2023-04-03T16:14:09;17.50;;;13.23;;
37855;SDS011;23694;43.274;26.924;2023-04-03T16:16:35;17.83;;;13.23;;
37855;SDS011;23694;43.274;26.924;2023-04-03T16:19:02;23.23;;;16.30;;
37855;SDS011;23694;43.274;26.924;2023-04-03T16:21:28;18.20;;;13.60;;
37855;SDS011;23694;43.274;26.924;2023-04-03T16:23:58;17.73;;;13.80;;
37855;SDS011;23694;43.274;26.924;2023-04-03T16:26:24;21.03;;;14.50;;
37855;SDS011;23694;43.274;26.924;2023-04-03T16:28:51;17.73;;;12.87;;
37855;SDS011;23694;43.274;26.924;2023-04-03T16:31:17;18.17;;;14.47;;
37855;SDS011;23694;43.274;26.924;2023-04-03T16:33:44;17.20;;;13.20;;
37855;SDS011;23694;43.274;26.924;2023-04-03T16:36:10;21.87;;;16.57;;
37855;SDS011;23694;43.274;26.924;2023-04-03T16:38:36;17.07;;;13.73;;